Terminal Aerodrome Forecast
Issued by NWS

Home | Current Version | Previous Version | Text Only | Print | Product List | Glossary On
Versions: 1 2 3 4 5 6 7 8 9 10 11 12 13 14 15 16 17 18 19 20 21 22 23 24 25 26 27 28 29 30
013
FTUS45 KLKN 202339
TAFTPH
TAF
KTPH 202339Z 2100/2124 17010KT P6SM BKN200
     FM210700 25015KT P6SM VCSH SCT035 BKN050
     FM210900 32020G35KT 6SM -SHRASN SCT025 BKN040
     FM211600 33040G55KT P6SM VCSH BKN040=

USA.gov is the U.S. government's official web portal to all federal, state and local government web resources and services.